sensor_id;sensor_type;location;lat;lon;timestamp;P1;durP1;ratioP1;P2;durP2;ratioP2
39300;SDS011;25019;42.626;23.380;2024-03-02T00:01:31;26.10;;;14.77;;
39300;SDS011;25019;42.626;23.380;2024-03-02T00:03:57;27.97;;;15.50;;
39300;SDS011;25019;42.626;23.380;2024-03-02T00:06:22;28.27;;;16.80;;
39300;SDS011;25019;42.626;23.380;2024-03-02T00:08:48;30.30;;;15.17;;
39300;SDS011;25019;42.626;23.380;2024-03-02T00:11:15;25.13;;;15.13;;
39300;SDS011;25019;42.626;23.380;2024-03-02T00:13:41;26.63;;;16.43;;
39300;SDS011;25019;42.626;23.380;2024-03-02T00:16:07;31.37;;;16.37;;
39300;SDS011;25019;42.626;23.380;2024-03-02T00:18:34;27.73;;;16.70;;
39300;SDS011;25019;42.626;23.380;2024-03-02T00:21:00;26.50;;;16.17;;
39300;SDS011;25019;42.626;23.380;2024-03-02T00:23:29;29.27;;;16.17;;
39300;SDS011;25019;42.626;23.380;2024-03-02T00:25:56;28.13;;;16.47;;
39300;SDS011;25019;42.626;23.380;2024-03-02T00:28:35;24.97;;;15.87;;
39300;SDS011;25019;42.626;23.380;2024-03-02T00:31:03;27.13;;;16.17;;
39300;SDS011;25019;42.626;23.380;2024-03-02T00:33:33;23.93;;;15.00;;
39300;SDS011;25019;42.626;23.380;2024-03-02T00:36:01;25.67;;;15.50;;
39300;SDS011;25019;42.626;23.380;2024-03-02T00:38:28;29.83;;;17.17;;
39300;SDS011;25019;42.626;23.380;2024-03-02T00:40:58;30.13;;;17.30;;
39300;SDS011;25019;42.626;23.380;2024-03-02T00:46:37;28.77;;;16.87;;
39300;SDS011;25019;42.626;23.380;2024-03-02T00:51:36;28.60;;;16.83;;
39300;SDS011;25019;42.626;23.380;2024-03-02T00:54:03;27.37;;;16.53;;
39300;SDS011;25019;42.626;23.380;2024-03-02T00:56:31;22.80;;;14.40;;
39300;SDS011;25019;42.626;23.380;2024-03-02T00:58:58;28.00;;;16.07;;
39300;SDS011;25019;42.626;23.380;2024-03-02T01:01:23;26.83;;;16.00;;
39300;SDS011;25019;42.626;23.380;2024-03-02T01:03:49;31.43;;;16.33;;
39300;SDS011;25019;42.626;23.380;2024-03-02T01:06:15;26.77;;;15.80;;
39300;SDS011;25019;42.626;23.380;2024-03-02T01:08:42;28.17;;;15.40;;
39300;SDS011;25019;42.626;23.380;2024-03-02T01:11:08;25.37;;;14.93;;
39300;SDS011;25019;42.626;23.380;2024-03-02T01:13:34;24.90;;;14.47;;
39300;SDS011;25019;42.626;23.380;2024-03-02T01:16:00;21.53;;;12.30;;
39300;SDS011;25019;42.626;23.380;2024-03-02T01:18:26;21.83;;;12.20;;
39300;SDS011;25019;42.626;23.380;2024-03-02T01:20:52;23.40;;;12.70;;
39300;SDS011;25019;42.626;23.380;2024-03-02T01:23:20;23.53;;;12.10;;
39300;SDS011;25019;42.626;23.380;2024-03-02T01:25:49;18.93;;;11.67;;
39300;SDS011;25019;42.626;23.380;2024-03-02T01:28:17;25.00;;;13.40;;
39300;SDS011;25019;42.626;23.380;2024-03-02T01:30:44;20.27;;;11.53;;
39300;SDS011;25019;42.626;23.380;2024-03-02T01:33:10;23.20;;;12.37;;
39300;SDS011;25019;42.626;23.380;2024-03-02T01:35:36;22.70;;;12.47;;
39300;SDS011;25019;42.626;23.380;2024-03-02T01:38:02;21.70;;;12.53;;
39300;SDS011;25019;42.626;23.380;2024-03-02T01:40:31;22.53;;;12.90;;
39300;SDS011;25019;42.626;23.380;2024-03-02T01:42:59;22.23;;;12.27;;
39300;SDS011;25019;42.626;23.380;2024-03-02T01:45:24;20.97;;;12.60;;
39300;SDS011;25019;42.626;23.380;2024-03-02T01:47:50;21.07;;;12.70;;
39300;SDS011;25019;42.626;23.380;2024-03-02T01:50:16;22.57;;;12.07;;
39300;SDS011;25019;42.626;23.380;2024-03-02T01:52:50;19.30;;;10.63;;
39300;SDS011;25019;42.626;23.380;2024-03-02T01:55:16;21.83;;;14.03;;
39300;SDS011;25019;42.626;23.380;2024-03-02T01:57:41;18.50;;;11.27;;
39300;SDS011;25019;42.626;23.380;2024-03-02T02:00:08;24.83;;;14.70;;
39300;SDS011;25019;42.626;23.380;2024-03-02T02:02:38;22.60;;;13.80;;
39300;SDS011;25019;42.626;23.380;2024-03-02T02:05:03;24.53;;;13.63;;
39300;SDS011;25019;42.626;23.380;2024-03-02T02:07:29;21.47;;;13.00;;
39300;SDS011;25019;42.626;23.380;2024-03-02T02:09:56;23.03;;;12.33;;
39300;SDS011;25019;42.626;23.380;2024-03-02T02:12:22;20.93;;;12.13;;
39300;SDS011;25019;42.626;23.380;2024-03-02T02:14:48;27.03;;;14.77;;
39300;SDS011;25019;42.626;23.380;2024-03-02T02:17:15;24.87;;;13.80;;
39300;SDS011;25019;42.626;23.380;2024-03-02T02:19:42;20.73;;;12.83;;
39300;SDS011;25019;42.626;23.380;2024-03-02T02:22:08;23.53;;;12.97;;
39300;SDS011;25019;42.626;23.380;2024-03-02T02:24:35;22.30;;;13.27;;
39300;SDS011;25019;42.626;23.380;2024-03-02T02:27:00;21.07;;;12.67;;
39300;SDS011;25019;42.626;23.380;2024-03-02T02:29:26;19.43;;;11.63;;
39300;SDS011;25019;42.626;23.380;2024-03-02T02:31:52;19.47;;;12.83;;
39300;SDS011;25019;42.626;23.380;2024-03-02T02:34:17;21.57;;;12.30;;
39300;SDS011;25019;42.626;23.380;2024-03-02T02:36:43;19.87;;;12.13;;
39300;SDS011;25019;42.626;23.380;2024-03-02T02:39:15;20.20;;;12.83;;
39300;SDS011;25019;42.626;23.380;2024-03-02T02:41:45;22.13;;;13.23;;
39300;SDS011;25019;42.626;23.380;2024-03-02T02:44:10;22.10;;;13.23;;
39300;SDS011;25019;42.626;23.380;2024-03-02T02:46:38;25.77;;;13.30;;
39300;SDS011;25019;42.626;23.380;2024-03-02T02:49:04;25.40;;;13.63;;
39300;SDS011;25019;42.626;23.380;2024-03-02T02:51:30;23.53;;;14.10;;
39300;SDS011;25019;42.626;23.380;2024-03-02T02:53:56;24.90;;;15.50;;
39300;SDS011;25019;42.626;23.380;2024-03-02T02:56:22;26.27;;;16.63;;
39300;SDS011;25019;42.626;23.380;2024-03-02T02:58:47;28.37;;;16.17;;
39300;SDS011;25019;42.626;23.380;2024-03-02T03:01:14;27.90;;;16.03;;
39300;SDS011;25019;42.626;23.380;2024-03-02T03:03:42;28.17;;;16.20;;
39300;SDS011;25019;42.626;23.380;2024-03-02T03:06:07;30.67;;;17.07;;
39300;SDS011;25019;42.626;23.380;2024-03-02T03:08:33;28.37;;;17.17;;
39300;SDS011;25019;42.626;23.380;2024-03-02T03:10:59;33.03;;;18.33;;
39300;SDS011;25019;42.626;23.380;2024-03-02T03:13:25;33.03;;;17.33;;
39300;SDS011;25019;42.626;23.380;2024-03-02T03:15:50;27.50;;;16.57;;
39300;SDS011;25019;42.626;23.380;2024-03-02T03:18:16;33.43;;;18.10;;
39300;SDS011;25019;42.626;23.380;2024-03-02T03:20:42;35.40;;;18.20;;
39300;SDS011;25019;42.626;23.380;2024-03-02T03:23:08;35.63;;;18.00;;
39300;SDS011;25019;42.626;23.380;2024-03-02T03:25:34;32.07;;;18.27;;
39300;SDS011;25019;42.626;23.380;2024-03-02T03:27:59;31.40;;;18.07;;
39300;SDS011;25019;42.626;23.380;2024-03-02T03:30:26;34.07;;;19.30;;
39300;SDS011;25019;42.626;23.380;2024-03-02T03:32:52;34.10;;;18.40;;
39300;SDS011;25019;42.626;23.380;2024-03-02T03:35:17;37.87;;;19.47;;
39300;SDS011;25019;42.626;23.380;2024-03-02T03:37:43;29.47;;;17.03;;
39300;SDS011;25019;42.626;23.380;2024-03-02T03:40:09;33.33;;;17.63;;
39300;SDS011;25019;42.626;23.380;2024-03-02T03:42:36;30.33;;;16.47;;
39300;SDS011;25019;42.626;23.380;2024-03-02T03:45:02;32.23;;;18.00;;
39300;SDS011;25019;42.626;23.380;2024-03-02T03:47:28;32.37;;;18.73;;
39300;SDS011;25019;42.626;23.380;2024-03-02T03:49:56;33.30;;;18.23;;
39300;SDS011;25019;42.626;23.380;2024-03-02T03:52:21;31.97;;;17.43;;
39300;SDS011;25019;42.626;23.380;2024-03-02T03:54:47;31.00;;;17.97;;
39300;SDS011;25019;42.626;23.380;2024-03-02T03:57:13;32.20;;;17.43;;
39300;SDS011;25019;42.626;23.380;2024-03-02T03:59:38;35.97;;;18.90;;
39300;SDS011;25019;42.626;23.380;2024-03-02T04:02:04;32.60;;;17.27;;
39300;SDS011;25019;42.626;23.380;2024-03-02T04:04:30;35.67;;;18.60;;
39300;SDS011;25019;42.626;23.380;2024-03-02T04:06:55;32.73;;;18.27;;
39300;SDS011;25019;42.626;23.380;2024-03-02T04:09:21;34.90;;;18.50;;
39300;SDS011;25019;42.626;23.380;2024-03-02T04:11:47;32.00;;;18.43;;
39300;SDS011;25019;42.626;23.380;2024-03-02T04:14:12;31.07;;;18.50;;
39300;SDS011;25019;42.626;23.380;2024-03-02T04:16:38;33.47;;;18.67;;
39300;SDS011;25019;42.626;23.380;2024-03-02T04:19:04;31.97;;;17.40;;
39300;SDS011;25019;42.626;23.380;2024-03-02T04:21:30;30.27;;;17.10;;
39300;SDS011;25019;42.626;23.380;2024-03-02T04:23:56;32.00;;;18.50;;
39300;SDS011;25019;42.626;23.380;2024-03-02T04:26:25;32.00;;;17.53;;
39300;SDS011;25019;42.626;23.380;2024-03-02T04:28:51;32.63;;;16.97;;
39300;SDS011;25019;42.626;23.380;2024-03-02T04:31:18;34.23;;;18.37;;
39300;SDS011;25019;42.626;23.380;2024-03-02T04:33:43;34.00;;;18.47;;
39300;SDS011;25019;42.626;23.380;2024-03-02T04:36:09;30.80;;;17.93;;
39300;SDS011;25019;42.626;23.380;2024-03-02T04:38:35;34.73;;;17.87;;
39300;SDS011;25019;42.626;23.380;2024-03-02T04:41:01;29.60;;;17.63;;
39300;SDS011;25019;42.626;23.380;2024-03-02T04:43:27;34.17;;;18.20;;
39300;SDS011;25019;42.626;23.380;2024-03-02T04:45:53;33.90;;;18.07;;
39300;SDS011;25019;42.626;23.380;2024-03-02T04:48:18;30.17;;;17.57;;
39300;SDS011;25019;42.626;23.380;2024-03-02T04:50:44;31.33;;;16.90;;
39300;SDS011;25019;42.626;23.380;2024-03-02T04:53:10;33.07;;;17.30;;
39300;SDS011;25019;42.626;23.380;2024-03-02T04:55:36;30.73;;;17.60;;
39300;SDS011;25019;42.626;23.380;2024-03-02T04:58:04;29.33;;;16.07;;
39300;SDS011;25019;42.626;23.380;2024-03-02T05:00:31;28.50;;;16.13;;
39300;SDS011;25019;42.626;23.380;2024-03-02T05:02:57;26.03;;;15.50;;
39300;SDS011;25019;42.626;23.380;2024-03-02T05:05:23;28.43;;;15.80;;
39300;SDS011;25019;42.626;23.380;2024-03-02T05:07:48;30.70;;;16.03;;
39300;SDS011;25019;42.626;23.380;2024-03-02T05:10:14;29.63;;;16.37;;
39300;SDS011;25019;42.626;23.380;2024-03-02T05:12:40;27.97;;;16.23;;
39300;SDS011;25019;42.626;23.380;2024-03-02T05:15:21;26.17;;;16.17;;
39300;SDS011;25019;42.626;23.380;2024-03-02T05:17:47;26.00;;;15.20;;
39300;SDS011;25019;42.626;23.380;2024-03-02T05:20:13;25.70;;;15.10;;
39300;SDS011;25019;42.626;23.380;2024-03-02T05:22:39;28.30;;;15.47;;
39300;SDS011;25019;42.626;23.380;2024-03-02T05:25:05;23.67;;;14.60;;
39300;SDS011;25019;42.626;23.380;2024-03-02T05:27:32;21.70;;;13.13;;
39300;SDS011;25019;42.626;23.380;2024-03-02T05:29:58;29.43;;;14.20;;
39300;SDS011;25019;42.626;23.380;2024-03-02T05:32:24;26.90;;;14.50;;
39300;SDS011;25019;42.626;23.380;2024-03-02T05:34:50;26.43;;;15.60;;
39300;SDS011;25019;42.626;23.380;2024-03-02T05:37:16;29.23;;;16.57;;
39300;SDS011;25019;42.626;23.380;2024-03-02T05:39:42;29.43;;;16.13;;
39300;SDS011;25019;42.626;23.380;2024-03-02T05:42:11;33.87;;;17.70;;
39300;SDS011;25019;42.626;23.380;2024-03-02T05:44:36;29.43;;;17.40;;
39300;SDS011;25019;42.626;23.380;2024-03-02T05:47:02;34.43;;;18.53;;
39300;SDS011;25019;42.626;23.380;2024-03-02T05:49:29;36.47;;;19.03;;
39300;SDS011;25019;42.626;23.380;2024-03-02T05:51:55;35.33;;;18.43;;
39300;SDS011;25019;42.626;23.380;2024-03-02T05:54:21;35.23;;;19.77;;
39300;SDS011;25019;42.626;23.380;2024-03-02T05:56:47;37.83;;;18.43;;
39300;SDS011;25019;42.626;23.380;2024-03-02T05:59:13;32.97;;;18.53;;
39300;SDS011;25019;42.626;23.380;2024-03-02T06:01:39;36.60;;;19.13;;
39300;SDS011;25019;42.626;23.380;2024-03-02T06:04:06;38.23;;;19.17;;
39300;SDS011;25019;42.626;23.380;2024-03-02T06:06:32;33.37;;;17.27;;
39300;SDS011;25019;42.626;23.380;2024-03-02T06:09:01;32.33;;;18.10;;
39300;SDS011;25019;42.626;23.380;2024-03-02T06:11:33;34.03;;;17.87;;
39300;SDS011;25019;42.626;23.380;2024-03-02T06:14:02;35.97;;;17.30;;
39300;SDS011;25019;42.626;23.380;2024-03-02T06:16:28;33.67;;;17.90;;
39300;SDS011;25019;42.626;23.380;2024-03-02T06:18:55;34.00;;;18.63;;
39300;SDS011;25019;42.626;23.380;2024-03-02T06:21:23;36.70;;;19.30;;
39300;SDS011;25019;42.626;23.380;2024-03-02T06:23:49;34.10;;;19.50;;
39300;SDS011;25019;42.626;23.380;2024-03-02T06:26:15;33.83;;;18.93;;
39300;SDS011;25019;42.626;23.380;2024-03-02T06:28:40;37.07;;;19.23;;
39300;SDS011;25019;42.626;23.380;2024-03-02T06:31:06;38.87;;;18.80;;
39300;SDS011;25019;42.626;23.380;2024-03-02T06:33:32;37.07;;;19.87;;
39300;SDS011;25019;42.626;23.380;2024-03-02T06:35:58;40.50;;;19.00;;
39300;SDS011;25019;42.626;23.380;2024-03-02T06:38:23;38.77;;;19.13;;
39300;SDS011;25019;42.626;23.380;2024-03-02T06:40:49;37.73;;;19.13;;
39300;SDS011;25019;42.626;23.380;2024-03-02T06:43:14;47.20;;;21.57;;
39300;SDS011;25019;42.626;23.380;2024-03-02T06:45:40;43.37;;;21.10;;
39300;SDS011;25019;42.626;23.380;2024-03-02T06:48:06;43.23;;;21.70;;
39300;SDS011;25019;42.626;23.380;2024-03-02T06:50:32;42.53;;;20.63;;
39300;SDS011;25019;42.626;23.380;2024-03-02T06:52:58;37.17;;;20.37;;
39300;SDS011;25019;42.626;23.380;2024-03-02T06:55:24;46.40;;;21.00;;
39300;SDS011;25019;42.626;23.380;2024-03-02T06:57:50;39.70;;;21.33;;
39300;SDS011;25019;42.626;23.380;2024-03-02T07:00:17;44.53;;;20.53;;
39300;SDS011;25019;42.626;23.380;2024-03-02T07:02:43;39.13;;;20.50;;
39300;SDS011;25019;42.626;23.380;2024-03-02T07:05:09;40.27;;;19.27;;
39300;SDS011;25019;42.626;23.380;2024-03-02T07:07:36;39.50;;;19.00;;
39300;SDS011;25019;42.626;23.380;2024-03-02T07:10:03;32.43;;;19.33;;
39300;SDS011;25019;42.626;23.380;2024-03-02T07:12:30;35.63;;;18.93;;
39300;SDS011;25019;42.626;23.380;2024-03-02T07:14:56;41.10;;;18.83;;
39300;SDS011;25019;42.626;23.380;2024-03-02T07:17:42;43.20;;;18.13;;
39300;SDS011;25019;42.626;23.380;2024-03-02T07:20:08;39.30;;;20.03;;
39300;SDS011;25019;42.626;23.380;2024-03-02T07:22:34;40.40;;;19.47;;
39300;SDS011;25019;42.626;23.380;2024-03-02T07:24:59;41.63;;;19.90;;
39300;SDS011;25019;42.626;23.380;2024-03-02T07:27:25;42.83;;;20.60;;
39300;SDS011;25019;42.626;23.380;2024-03-02T07:29:51;42.63;;;20.57;;
39300;SDS011;25019;42.626;23.380;2024-03-02T07:32:17;40.07;;;19.00;;
39300;SDS011;25019;42.626;23.380;2024-03-02T07:34:42;41.83;;;20.60;;
39300;SDS011;25019;42.626;23.380;2024-03-02T07:37:08;43.53;;;20.17;;
39300;SDS011;25019;42.626;23.380;2024-03-02T07:39:34;47.17;;;22.23;;
39300;SDS011;25019;42.626;23.380;2024-03-02T07:41:59;43.50;;;20.73;;
39300;SDS011;25019;42.626;23.380;2024-03-02T07:44:25;48.63;;;23.00;;
39300;SDS011;25019;42.626;23.380;2024-03-02T07:46:51;44.70;;;22.80;;
39300;SDS011;25019;42.626;23.380;2024-03-02T07:49:18;49.30;;;23.90;;
39300;SDS011;25019;42.626;23.380;2024-03-02T07:51:44;46.77;;;23.50;;
39300;SDS011;25019;42.626;23.380;2024-03-02T07:54:10;46.27;;;23.27;;
39300;SDS011;25019;42.626;23.380;2024-03-02T07:56:36;50.77;;;22.17;;
39300;SDS011;25019;42.626;23.380;2024-03-02T07:59:02;46.23;;;21.40;;
39300;SDS011;25019;42.626;23.380;2024-03-02T08:01:28;40.80;;;19.30;;
39300;SDS011;25019;42.626;23.380;2024-03-02T08:03:57;40.73;;;19.40;;
39300;SDS011;25019;42.626;23.380;2024-03-02T08:06:25;41.50;;;18.80;;
39300;SDS011;25019;42.626;23.380;2024-03-02T08:09:01;41.33;;;19.13;;
39300;SDS011;25019;42.626;23.380;2024-03-02T08:11:29;40.43;;;18.73;;
39300;SDS011;25019;42.626;23.380;2024-03-02T08:13:56;39.53;;;17.23;;
39300;SDS011;25019;42.626;23.380;2024-03-02T08:16:24;40.27;;;17.77;;
39300;SDS011;25019;42.626;23.380;2024-03-02T08:18:50;39.40;;;18.33;;
39300;SDS011;25019;42.626;23.380;2024-03-02T08:21:17;35.50;;;17.83;;
39300;SDS011;25019;42.626;23.380;2024-03-02T08:23:43;38.47;;;17.67;;
39300;SDS011;25019;42.626;23.380;2024-03-02T08:26:09;41.97;;;19.77;;
39300;SDS011;25019;42.626;23.380;2024-03-02T08:28:35;38.70;;;19.57;;
39300;SDS011;25019;42.626;23.380;2024-03-02T08:31:07;39.67;;;19.03;;
39300;SDS011;25019;42.626;23.380;2024-03-02T08:33:33;40.63;;;19.20;;
39300;SDS011;25019;42.626;23.380;2024-03-02T08:35:59;39.53;;;18.87;;
39300;SDS011;25019;42.626;23.380;2024-03-02T08:38:24;40.50;;;20.37;;
39300;SDS011;25019;42.626;23.380;2024-03-02T08:40:50;43.77;;;19.13;;
39300;SDS011;25019;42.626;23.380;2024-03-02T08:43:16;41.97;;;20.17;;
39300;SDS011;25019;42.626;23.380;2024-03-02T08:45:42;44.87;;;21.20;;
39300;SDS011;25019;42.626;23.380;2024-03-02T08:48:08;44.07;;;20.70;;
39300;SDS011;25019;42.626;23.380;2024-03-02T08:50:34;44.77;;;21.20;;
39300;SDS011;25019;42.626;23.380;2024-03-02T08:53:01;41.67;;;21.47;;
39300;SDS011;25019;42.626;23.380;2024-03-02T08:55:28;41.43;;;21.57;;
39300;SDS011;25019;42.626;23.380;2024-03-02T08:57:53;35.73;;;20.67;;
39300;SDS011;25019;42.626;23.380;2024-03-02T09:00:19;41.30;;;20.37;;
39300;SDS011;25019;42.626;23.380;2024-03-02T09:02:45;39.57;;;20.23;;
39300;SDS011;25019;42.626;23.380;2024-03-02T09:05:11;30.40;;;18.43;;
39300;SDS011;25019;42.626;23.380;2024-03-02T09:07:37;35.77;;;18.90;;
39300;SDS011;25019;42.626;23.380;2024-03-02T09:10:04;32.47;;;18.37;;
39300;SDS011;25019;42.626;23.380;2024-03-02T09:12:33;30.83;;;18.43;;
39300;SDS011;25019;42.626;23.380;2024-03-02T09:15:00;32.37;;;16.80;;
39300;SDS011;25019;42.626;23.380;2024-03-02T09:17:28;27.80;;;15.63;;
39300;SDS011;25019;42.626;23.380;2024-03-02T09:19:55;25.77;;;14.53;;
39300;SDS011;25019;42.626;23.380;2024-03-02T09:22:21;23.93;;;14.27;;
39300;SDS011;25019;42.626;23.380;2024-03-02T09:24:47;25.33;;;13.77;;
39300;SDS011;25019;42.626;23.380;2024-03-02T09:27:13;24.90;;;13.57;;
39300;SDS011;25019;42.626;23.380;2024-03-02T09:29:38;22.80;;;11.73;;
39300;SDS011;25019;42.626;23.380;2024-03-02T09:32:08;21.03;;;12.47;;
39300;SDS011;25019;42.626;23.380;2024-03-02T09:34:37;19.93;;;10.37;;
39300;SDS011;25019;42.626;23.380;2024-03-02T09:37:03;19.50;;;10.53;;
39300;SDS011;25019;42.626;23.380;2024-03-02T09:39:29;23.33;;;13.17;;
39300;SDS011;25019;42.626;23.380;2024-03-02T09:41:55;22.40;;;12.50;;
39300;SDS011;25019;42.626;23.380;2024-03-02T09:44:21;25.40;;;13.23;;
39300;SDS011;25019;42.626;23.380;2024-03-02T09:46:50;25.93;;;13.50;;
39300;SDS011;25019;42.626;23.380;2024-03-02T09:49:17;21.27;;;13.17;;
39300;SDS011;25019;42.626;23.380;2024-03-02T09:51:49;25.17;;;13.10;;
39300;SDS011;25019;42.626;23.380;2024-03-02T09:54:18;24.43;;;13.57;;
39300;SDS011;25019;42.626;23.380;2024-03-02T09:56:44;24.87;;;13.13;;
39300;SDS011;25019;42.626;23.380;2024-03-02T09:59:10;27.47;;;13.80;;
39300;SDS011;25019;42.626;23.380;2024-03-02T10:01:36;24.03;;;13.20;;
39300;SDS011;25019;42.626;23.380;2024-03-02T10:04:01;22.63;;;12.23;;
39300;SDS011;25019;42.626;23.380;2024-03-02T10:06:28;21.37;;;13.87;;
39300;SDS011;25019;42.626;23.380;2024-03-02T10:08:54;23.87;;;14.67;;
39300;SDS011;25019;42.626;23.380;2024-03-02T10:11:39;26.07;;;14.03;;
39300;SDS011;25019;42.626;23.380;2024-03-02T10:14:08;21.43;;;12.73;;
39300;SDS011;25019;42.626;23.380;2024-03-02T10:16:34;27.87;;;14.00;;
39300;SDS011;25019;42.626;23.380;2024-03-02T10:19:19;25.13;;;13.70;;
39300;SDS011;25019;42.626;23.380;2024-03-02T10:21:47;20.83;;;12.70;;
39300;SDS011;25019;42.626;23.380;2024-03-02T10:24:15;22.90;;;13.10;;
39300;SDS011;25019;42.626;23.380;2024-03-02T10:26:41;23.23;;;13.97;;
39300;SDS011;25019;42.626;23.380;2024-03-02T10:29:08;21.60;;;12.33;;
39300;SDS011;25019;42.626;23.380;2024-03-02T10:31:36;23.93;;;13.50;;
39300;SDS011;25019;42.626;23.380;2024-03-02T10:34:02;22.57;;;13.40;;
39300;SDS011;25019;42.626;23.380;2024-03-02T10:36:29;24.70;;;14.10;;
39300;SDS011;25019;42.626;23.380;2024-03-02T10:38:56;25.73;;;13.73;;
39300;SDS011;25019;42.626;23.380;2024-03-02T10:41:24;19.90;;;11.80;;
39300;SDS011;25019;42.626;23.380;2024-03-02T10:43:54;18.07;;;11.53;;
39300;SDS011;25019;42.626;23.380;2024-03-02T10:46:28;25.10;;;13.83;;
39300;SDS011;25019;42.626;23.380;2024-03-02T10:48:58;21.57;;;12.80;;
39300;SDS011;25019;42.626;23.380;2024-03-02T10:51:28;20.73;;;12.40;;
39300;SDS011;25019;42.626;23.380;2024-03-02T10:54:00;19.30;;;11.47;;
39300;SDS011;25019;42.626;23.380;2024-03-02T10:56:30;21.17;;;11.27;;
39300;SDS011;25019;42.626;23.380;2024-03-02T10:59:11;19.30;;;11.77;;
39300;SDS011;25019;42.626;23.380;2024-03-02T11:01:54;16.77;;;10.40;;
39300;SDS011;25019;42.626;23.380;2024-03-02T11:04:24;19.83;;;11.17;;
39300;SDS011;25019;42.626;23.380;2024-03-02T11:06:51;17.80;;;10.43;;
39300;SDS011;25019;42.626;23.380;2024-03-02T11:09:20;19.73;;;11.60;;
39300;SDS011;25019;42.626;23.380;2024-03-02T11:12:00;19.10;;;11.90;;
39300;SDS011;25019;42.626;23.380;2024-03-02T11:14:27;19.73;;;11.73;;
39300;SDS011;25019;42.626;23.380;2024-03-02T11:16:57;16.67;;;10.57;;
39300;SDS011;25019;42.626;23.380;2024-03-02T11:19:24;19.07;;;10.53;;
39300;SDS011;25019;42.626;23.380;2024-03-02T11:21:50;16.80;;;10.77;;
39300;SDS011;25019;42.626;23.380;2024-03-02T11:27:04;18.10;;;10.27;;
39300;SDS011;25019;42.626;23.380;2024-03-02T11:32:06;17.63;;;11.17;;
39300;SDS011;25019;42.626;23.380;2024-03-02T11:34:39;15.87;;;10.77;;
39300;SDS011;25019;42.626;23.380;2024-03-02T11:37:10;15.93;;;10.27;;
39300;SDS011;25019;42.626;23.380;2024-03-02T11:39:37;19.93;;;10.83;;
39300;SDS011;25019;42.626;23.380;2024-03-02T11:42:07;18.80;;;10.07;;
39300;SDS011;25019;42.626;23.380;2024-03-02T11:44:36;18.00;;;10.93;;
39300;SDS011;25019;42.626;23.380;2024-03-02T11:47:06;21.40;;;10.67;;
39300;SDS011;25019;42.626;23.380;2024-03-02T11:52:06;16.47;;;10.40;;
39300;SDS011;25019;42.626;23.380;2024-03-02T11:54:34;19.60;;;10.27;;
39300;SDS011;25019;42.626;23.380;2024-03-02T11:57:05;18.73;;;11.50;;
39300;SDS011;25019;42.626;23.380;2024-03-02T11:59:32;18.73;;;10.90;;
39300;SDS011;25019;42.626;23.380;2024-03-02T12:01:58;17.03;;;10.00;;
39300;SDS011;25019;42.626;23.380;2024-03-02T12:04:25;16.07;;;10.83;;
39300;SDS011;25019;42.626;23.380;2024-03-02T12:07:01;19.60;;;11.23;;
39300;SDS011;25019;42.626;23.380;2024-03-02T12:09:27;14.83;;;10.13;;
39300;SDS011;25019;42.626;23.380;2024-03-02T12:12:27;18.33;;;10.93;;
39300;SDS011;25019;42.626;23.380;2024-03-02T12:14:51;18.00;;;10.70;;
39300;SDS011;25019;42.626;23.380;2024-03-02T12:17:21;15.83;;;9.87;;
39300;SDS011;25019;42.626;23.380;2024-03-02T12:19:48;17.23;;;10.17;;
39300;SDS011;25019;42.626;23.380;2024-03-02T12:22:13;15.20;;;8.47;;
39300;SDS011;25019;42.626;23.380;2024-03-02T12:24:41;14.90;;;9.23;;
39300;SDS011;25019;42.626;23.380;2024-03-02T12:27:07;16.13;;;10.23;;
39300;SDS011;25019;42.626;23.380;2024-03-02T12:29:33;15.87;;;9.17;;
39300;SDS011;25019;42.626;23.380;2024-03-02T12:31:59;14.40;;;8.77;;
39300;SDS011;25019;42.626;23.380;2024-03-02T12:34:27;16.43;;;10.07;;
39300;SDS011;25019;42.626;23.380;2024-03-02T12:36:53;15.60;;;10.07;;
39300;SDS011;25019;42.626;23.380;2024-03-02T12:39:19;16.00;;;11.00;;
39300;SDS011;25019;42.626;23.380;2024-03-02T12:41:48;15.63;;;9.83;;
39300;SDS011;25019;42.626;23.380;2024-03-02T12:44:19;16.37;;;9.53;;
39300;SDS011;25019;42.626;23.380;2024-03-02T12:46:46;17.60;;;9.93;;
39300;SDS011;25019;42.626;23.380;2024-03-02T12:49:12;17.47;;;9.73;;
39300;SDS011;25019;42.626;23.380;2024-03-02T12:51:41;16.17;;;9.97;;
39300;SDS011;25019;42.626;23.380;2024-03-02T12:54:08;20.00;;;10.90;;
39300;SDS011;25019;42.626;23.380;2024-03-02T12:56:34;19.37;;;10.47;;
39300;SDS011;25019;42.626;23.380;2024-03-02T12:59:00;16.97;;;10.83;;
39300;SDS011;25019;42.626;23.380;2024-03-02T13:01:26;15.40;;;9.30;;
39300;SDS011;25019;42.626;23.380;2024-03-02T13:03:52;16.97;;;10.93;;
39300;SDS011;25019;42.626;23.380;2024-03-02T13:06:20;18.47;;;10.90;;
39300;SDS011;25019;42.626;23.380;2024-03-02T13:08:46;18.80;;;11.20;;
39300;SDS011;25019;42.626;23.380;2024-03-02T13:11:15;17.10;;;11.13;;
39300;SDS011;25019;42.626;23.380;2024-03-02T13:13:42;16.60;;;9.80;;
39300;SDS011;25019;42.626;23.380;2024-03-02T13:16:11;15.93;;;10.53;;
39300;SDS011;25019;42.626;23.380;2024-03-02T13:18:41;17.20;;;10.50;;
39300;SDS011;25019;42.626;23.380;2024-03-02T13:21:07;15.23;;;10.60;;
39300;SDS011;25019;42.626;23.380;2024-03-02T13:23:33;19.10;;;11.27;;
39300;SDS011;25019;42.626;23.380;2024-03-02T13:25:59;17.43;;;11.13;;
39300;SDS011;25019;42.626;23.380;2024-03-02T13:28:25;15.20;;;9.90;;
39300;SDS011;25019;42.626;23.380;2024-03-02T13:30:51;13.63;;;9.70;;
39300;SDS011;25019;42.626;23.380;2024-03-02T13:33:18;17.27;;;10.57;;
39300;SDS011;25019;42.626;23.380;2024-03-02T13:35:48;14.20;;;10.20;;
39300;SDS011;25019;42.626;23.380;2024-03-02T13:38:18;16.17;;;10.10;;
39300;SDS011;25019;42.626;23.380;2024-03-02T13:40:45;14.87;;;10.20;;
39300;SDS011;25019;42.626;23.380;2024-03-02T13:43:22;16.60;;;10.73;;
39300;SDS011;25019;42.626;23.380;2024-03-02T13:45:49;21.43;;;12.47;;
39300;SDS011;25019;42.626;23.380;2024-03-02T13:48:17;19.53;;;11.40;;
39300;SDS011;25019;42.626;23.380;2024-03-02T13:50:42;17.53;;;11.23;;
39300;SDS011;25019;42.626;23.380;2024-03-02T13:53:08;14.97;;;10.87;;
39300;SDS011;25019;42.626;23.380;2024-03-02T13:55:34;18.73;;;11.70;;
39300;SDS011;25019;42.626;23.380;2024-03-02T13:57:59;19.07;;;11.60;;
39300;SDS011;25019;42.626;23.380;2024-03-02T14:00:25;19.47;;;11.27;;
39300;SDS011;25019;42.626;23.380;2024-03-02T14:02:51;18.33;;;11.23;;
39300;SDS011;25019;42.626;23.380;2024-03-02T14:05:17;18.23;;;11.43;;
39300;SDS011;25019;42.626;23.380;2024-03-02T14:07:44;18.70;;;12.00;;
39300;SDS011;25019;42.626;23.380;2024-03-02T14:10:10;18.87;;;11.60;;
39300;SDS011;25019;42.626;23.380;2024-03-02T14:12:36;20.07;;;12.37;;
39300;SDS011;25019;42.626;23.380;2024-03-02T14:15:02;17.70;;;11.47;;
39300;SDS011;25019;42.626;23.380;2024-03-02T14:17:29;17.97;;;11.53;;
39300;SDS011;25019;42.626;23.380;2024-03-02T14:19:57;19.27;;;11.57;;
39300;SDS011;25019;42.626;23.380;2024-03-02T14:22:24;19.87;;;12.00;;